Time;durP1;ratioP1;P1;durP2;ratioP2;P2;SDS_P1;SDS_P2;PMS_P1;PMS_P2;Temp;Humidity;BMP_temperature;BMP_pressure;BME280_temperature;BME280_humidity;BME280_pressure;Samples;Min_cycle;Max_cycle;Signal;HPM_P1;HPM_P2
2022/02/19 00:00:27;;;;;;;1.60;0.30;;;15.90;43.30;;;;;;6216944;28;20134;-71
2022/02/19 00:03:28;;;;;;;0.63;0.30;;;15.90;43.10;;;;;;6216934;28;20379;-72
2022/02/19 00:06:33;;;;;;;5.68;0.50;;;15.90;43.00;;;;;;6199590;28;20065;-71
2022/02/19 00:09:34;;;;;;;3.08;0.50;;;15.80;42.60;;;;;;6216768;28;20058;-71
2022/02/19 00:12:35;;;;;;;1.65;0.40;;;15.90;42.30;;;;;;6213135;28;20045;-70
2022/02/19 00:15:36;;;;;;;3.65;0.50;;;15.80;42.00;;;;;;6208955;28;20076;-71
2022/02/19 00:18:38;;;;;;;4.18;0.82;;;15.80;41.90;;;;;;6216663;28;20056;-72
2022/02/19 00:21:39;;;;;;;2.83;0.43;;;15.80;41.50;;;;;;6201210;28;20046;-72
2022/02/19 00:24:40;;;;;;;1.02;0.40;;;15.80;41.30;;;;;;6199754;28;20156;-70
2022/02/19 00:27:41;;;;;;;6.18;0.50;;;15.80;41.20;;;;;;6199966;28;20459;-70
2022/02/19 00:30:44;;;;;;;4.43;0.63;;;15.80;41.20;;;;;;6215273;28;20100;-72
2022/02/19 00:33:45;;;;;;;2.83;0.80;;;15.80;41.10;;;;;;6201149;28;20478;-71
2022/02/19 00:36:45;;;;;;;5.18;0.63;;;15.80;41.20;;;;;;6216498;28;20053;-71
2022/02/19 00:39:46;;;;;;;1.05;0.40;;;15.80;41.30;;;;;;6200837;28;20122;-71
2022/02/19 00:42:47;;;;;;;0.75;0.22;;;15.70;41.50;;;;;;6182770;28;20038;-70
2022/02/19 00:45:49;;;;;;;1.40;0.30;;;15.70;41.70;;;;;;6175398;28;20047;-71
2022/02/19 00:48:51;;;;;;;2.08;0.68;;;15.60;41.50;;;;;;6196166;28;20177;-71
2022/02/19 00:51:52;;;;;;;3.47;0.80;;;15.60;41.70;;;;;;6198498;28;20459;-71
2022/02/19 00:54:53;;;;;;;3.35;0.73;;;15.50;41.80;;;;;;6200324;28;20045;-71
2022/02/19 00:57:54;;;;;;;3.25;0.47;;;15.50;41.90;;;;;;6201190;28;20360;-71
2022/02/19 01:00:55;;;;;;;3.03;0.90;;;15.40;41.90;;;;;;6199202;28;20030;-71
2022/02/19 01:04:04;;;;;;;3.20;1.10;;;15.40;42.00;;;;;;6175877;28;20045;-69
2022/02/19 01:07:05;;;;;;;3.25;0.95;;;15.30;42.10;;;;;;6214494;28;20452;-69
2022/02/19 01:10:08;;;;;;;4.65;0.90;;;15.20;42.30;;;;;;6214257;28;20494;-69
2022/02/19 01:13:09;;;;;;;6.35;0.93;;;15.20;42.40;;;;;;6215094;28;20038;-71
2022/02/19 01:16:10;;;;;;;1.55;0.57;;;15.10;42.50;;;;;;6198687;28;20045;-71
2022/02/19 01:19:11;;;;;;;4.50;0.75;;;15.10;42.60;;;;;;6199097;28;20151;-70
2022/02/19 01:22:12;;;;;;;10.13;1.02;;;15.10;42.60;;;;;;6215230;28;20355;-70
2022/02/19 01:25:13;;;;;;;3.67;0.50;;;15.10;42.70;;;;;;6214968;28;20119;-71
2022/02/19 01:28:23;;;;;;;2.88;0.57;;;15.10;42.70;;;;;;6198888;28;20412;-72
2022/02/19 01:31:24;;;;;;;1.98;0.52;;;15.10;42.70;;;;;;6197423;28;20038;-71
2022/02/19 01:34:26;;;;;;;3.03;0.55;;;15.10;42.80;;;;;;6214694;28;20048;-71
2022/02/19 01:37:27;;;;;;;1.17;0.52;;;15.00;42.80;;;;;;6198638;28;20046;-71
2022/02/19 01:40:28;;;;;;;2.00;0.60;;;15.10;42.80;;;;;;6197493;28;20034;-72
2022/02/19 01:43:30;;;;;;;4.75;0.75;;;15.10;42.80;;;;;;6197629;28;20457;-69
2022/02/19 01:46:31;;;;;;;2.47;0.70;;;15.00;42.80;;;;;;6198681;28;20137;-70
2022/02/19 01:49:32;;;;;;;4.00;0.73;;;15.00;43.00;;;;;;6198450;28;20137;-69
2022/02/19 01:52:34;;;;;;;2.17;0.75;;;14.90;43.10;;;;;;6194691;28;20126;-70
2022/02/19 01:55:35;;;;;;;1.13;0.98;;;15.00;43.80;;;;;;6214890;28;20042;-69
2022/02/19 01:58:46;;;;;;;6.63;0.80;;;15.00;44.20;;;;;;6199383;28;20069;-69
2022/02/19 02:02:05;;;;;;;6.22;0.93;;;15.00;44.20;;;;;;6203219;28;20366;-69
2022/02/19 02:05:19;;;;;;;6.03;0.68;;;14.90;43.70;;;;;;6218456;28;20045;-69
2022/02/19 02:08:21;;;;;;;8.70;1.02;;;14.90;43.30;;;;;;6203253;28;20352;-70
2022/02/19 02:11:23;;;;;;;4.20;0.65;;;14.90;43.00;;;;;;6217926;28;20038;-71
2022/02/19 02:14:38;;;;;;;3.47;0.60;;;14.90;42.60;;;;;;6219579;28;20042;-69
2022/02/19 02:17:41;;;;;;;12.68;1.17;;;14.90;42.40;;;;;;6218968;28;20034;-70
2022/02/19 02:20:42;;;;;;;3.63;0.70;;;14.90;42.30;;;;;;6202514;28;20320;-70
2022/02/19 02:23:45;;;;;;;5.28;1.15;;;14.90;42.00;;;;;;6202143;28;20033;-70
2022/02/19 02:26:47;;;;;;;6.28;0.93;;;14.90;42.50;;;;;;6218825;28;20046;-70
2022/02/19 02:29:49;;;;;;;7.07;0.90;;;14.80;41.90;;;;;;6201419;28;20042;-70
2022/02/19 02:33:08;;;;;;;3.83;0.63;;;14.80;41.90;;;;;;6219144;28;20085;-70
2022/02/19 02:36:09;;;;;;;5.35;0.90;;;14.80;41.90;;;;;;6218061;28;20031;-70
2022/02/19 02:39:15;;;;;;;2.35;0.75;;;14.90;42.00;;;;;;6217575;28;20537;-70
2022/02/19 02:42:17;;;;;;;4.43;0.60;;;14.80;41.90;;;;;;6218329;28;20030;-70
2022/02/19 02:45:18;;;;;;;11.02;1.20;;;14.80;42.00;;;;;;6218608;28;20069;-70
2022/02/19 02:48:22;;;;;;;7.18;0.85;;;14.80;42.00;;;;;;6218331;28;20053;-71
2022/02/19 02:51:23;;;;;;;2.00;0.70;;;14.80;41.80;;;;;;6212226;28;20041;-70
2022/02/19 02:54:25;;;;;;;8.68;1.08;;;14.70;41.80;;;;;;6199779;28;20104;-70
2022/02/19 02:57:26;;;;;;;8.43;0.98;;;14.80;41.80;;;;;;6218575;28;20043;-70
2022/02/19 03:00:27;;;;;;;2.17;0.55;;;14.80;41.80;;;;;;6197426;28;20046;-70
2022/02/19 03:03:27;;;;;;;4.32;0.73;;;14.70;42.30;;;;;;6201436;28;20432;-70
2022/02/19 03:06:28;;;;;;;2.25;0.28;;;14.70;43.80;;;;;;6193598;28;20058;-69
2022/02/19 03:09:29;;;;;;;1.83;0.50;;;14.70;44.00;;;;;;6200839;28;20074;-70
2022/02/19 03:12:30;;;;;;;3.75;0.60;;;14.70;44.50;;;;;;6216876;28;20042;-70
2022/02/19 03:15:31;;;;;;;2.25;0.40;;;14.70;45.30;;;;;;6201009;28;20470;-70
2022/02/19 03:18:33;;;;;;;1.80;0.57;;;14.70;45.60;;;;;;6201650;28;20153;-70
2022/02/19 03:21:34;;;;;;;1.77;0.32;;;14.70;46.00;;;;;;6185953;28;20043;-70
2022/02/19 03:24:35;;;;;;;3.17;0.73;;;14.70;46.40;;;;;;6200630;28;20062;-70
2022/02/19 03:27:36;;;;;;;4.90;0.70;;;14.70;46.70;;;;;;6185192;28;20031;-70
2022/02/19 03:30:43;;;;;;;1.35;0.60;;;14.60;47.40;;;;;;6214399;28;20118;-70
2022/02/19 03:34:03;;;;;;;1.45;0.55;;;14.60;47.70;;;;;;6202220;28;20046;-70
2022/02/19 03:37:06;;;;;;;7.82;0.77;;;14.50;47.80;;;;;;6201448;28;20030;-70
2022/02/19 03:40:08;;;;;;;3.33;0.73;;;14.50;47.90;;;;;;6199806;28;20085;-70
2022/02/19 03:43:09;;;;;;;1.90;0.38;;;14.50;48.30;;;;;;6195957;28;20030;-70
2022/02/19 03:46:11;;;;;;;1.42;0.45;;;14.40;48.50;;;;;;6216596;28;20045;-70
2022/02/19 03:49:47;;;;;;;4.82;0.52;;;14.40;48.70;;;;;;6195213;28;20125;-70
2022/02/19 03:52:48;;;;;;;2.13;0.35;;;14.30;48.90;;;;;;6213350;28;20069;-70
2022/02/19 03:56:15;;;;;;;0.95;0.40;;;14.30;48.60;;;;;;6206689;28;20038;-71
2022/02/19 03:59:17;;;;;;;1.08;0.40;;;14.30;48.90;;;;;;6214292;28;20487;-69
2022/02/19 04:02:18;;;;;;;0.98;0.38;;;14.30;49.20;;;;;;6214616;28;20034;-70
2022/02/19 04:05:20;;;;;;;5.05;0.60;;;14.30;49.30;;;;;;6214524;28;20041;-70
2022/02/19 04:08:22;;;;;;;1.73;0.68;;;14.20;49.30;;;;;;6198068;28;20033;-70
2022/02/19 04:11:26;;;;;;;2.95;1.00;;;14.20;49.50;;;;;;6196454;28;20038;-70
2022/02/19 04:14:29;;;;;;;3.85;0.80;;;14.20;49.70;;;;;;6213279;28;20050;-70
2022/02/19 04:17:39;;;;;;;2.13;0.28;;;14.10;49.80;;;;;;6214253;28;20100;-70
2022/02/19 04:20:40;;;;;;;4.47;0.65;;;14.10;49.90;;;;;;6198085;28;20380;-70
2022/02/19 04:23:41;;;;;;;1.38;0.57;;;14.10;49.90;;;;;;6213223;28;20034;-70
2022/02/19 04:26:44;;;;;;;1.52;0.70;;;14.10;49.90;;;;;;6214158;28;20045;-70
2022/02/19 04:29:46;;;;;;;7.40;0.82;;;14.10;49.90;;;;;;6198037;28;20030;-70
2022/02/19 04:32:47;;;;;;;3.85;0.60;;;14.10;49.80;;;;;;6188080;28;20374;-70
2022/02/19 04:35:48;;;;;;;1.58;0.47;;;14.20;49.90;;;;;;6213932;28;20035;-70
2022/02/19 04:38:49;;;;;;;1.80;0.50;;;14.20;49.80;;;;;;6213977;28;20412;-70
2022/02/19 04:41:50;;;;;;;1.50;0.50;;;14.20;49.80;;;;;;6196960;28;20034;-70
2022/02/19 04:44:55;;;;;;;2.45;0.57;;;14.20;49.80;;;;;;6206510;28;20483;-70
2022/02/19 04:47:57;;;;;;;3.75;0.73;;;14.20;49.40;;;;;;6197012;28;20035;-69
2022/02/19 04:50:59;;;;;;;2.50;0.70;;;14.10;49.10;;;;;;6195751;28;20466;-70
2022/02/19 04:54:00;;;;;;;3.63;0.50;;;14.00;49.30;;;;;;6197054;28;20451;-70
2022/02/19 04:57:01;;;;;;;4.47;0.73;;;14.00;49.10;;;;;;6193653;28;20030;-69
2022/02/19 05:00:06;;;;;;;6.95;0.93;;;14.00;48.80;;;;;;6195731;28;20030;-70
2022/02/19 05:03:27;;;;;;;6.22;0.90;;;14.00;48.40;;;;;;6190087;28;20030;-70
2022/02/19 05:06:41;;;;;;;2.45;0.88;;;13.90;47.50;;;;;;6196474;28;20113;-70
2022/02/19 05:09:42;;;;;;;3.15;0.73;;;13.90;47.10;;;;;;6196732;28;20053;-70
2022/02/19 05:12:46;;;;;;;7.50;0.90;;;13.90;46.90;;;;;;6190307;28;20065;-70
2022/02/19 05:15:50;;;;;;;4.95;1.05;;;13.90;46.70;;;;;;6172158;28;20034;-70
2022/02/19 05:19:06;;;;;;;4.88;0.80;;;13.90;46.40;;;;;;6194768;28;20121;-70
2022/02/19 05:22:11;;;;;;;6.07;0.93;;;13.90;46.30;;;;;;6195177;28;20038;-70
2022/02/19 05:25:17;;;;;;;2.03;0.75;;;13.90;46.20;;;;;;6212844;28;20030;-70
2022/02/19 05:28:19;;;;;;;10.32;1.10;;;13.80;46.00;;;;;;6196774;28;20045;-70
2022/02/19 05:31:22;;;;;;;5.95;0.70;;;13.80;45.90;;;;;;6195571;28;20042;-71
2022/02/19 05:34:26;;;;;;;3.50;0.75;;;13.80;45.70;;;;;;6197418;28;20378;-71
2022/02/19 05:37:31;;;;;;;4.68;1.27;;;13.80;45.80;;;;;;6211964;28;20078;-71
2022/02/19 05:40:34;;;;;;;6.38;1.00;;;13.80;46.30;;;;;;6196104;28;20478;-71
2022/02/19 05:43:41;;;;;;;5.57;1.02;;;13.70;46.70;;;;;;6213375;28;20039;-73
2022/02/19 05:46:51;;;;;;;3.80;0.82;;;13.60;47.00;;;;;;6197143;28;20038;-70
2022/02/19 05:49:58;;;;;;;3.15;0.90;;;13.50;47.50;;;;;;6197625;28;20033;-71
2022/02/19 05:53:15;;;;;;;5.88;0.60;;;13.40;48.00;;;;;;6157862;28;20104;-71
2022/02/19 05:56:20;;;;;;;9.55;1.00;;;13.30;48.80;;;;;;6176927;28;20169;-71
2022/02/19 05:59:21;;;;;;;8.77;1.00;;;13.30;49.20;;;;;;6195982;28;20046;-69
2022/02/19 06:02:22;;;;;;;4.88;0.90;;;13.20;49.60;;;;;;6204567;28;20046;-69
2022/02/19 06:05:24;;;;;;;5.72;0.80;;;13.00;50.00;;;;;;6195994;28;20035;-70
2022/02/19 06:08:26;;;;;;;1.90;0.50;;;12.90;50.50;;;;;;6195135;28;20042;-70
2022/02/19 06:11:27;;;;;;;2.60;0.68;;;12.70;50.90;;;;;;6210361;28;21876;-70
2022/02/19 06:14:47;;;;;;;2.15;0.57;;;12.60;51.10;;;;;;6192569;28;20039;-70
2022/02/19 06:17:48;;;;;;;3.92;0.80;;;12.60;51.30;;;;;;6189343;28;20383;-70
2022/02/19 06:20:49;;;;;;;2.78;0.70;;;12.50;51.50;;;;;;6197203;28;20046;-69
2022/02/19 06:24:05;;;;;;;7.28;1.08;;;12.40;51.70;;;;;;6194786;28;20045;-70
2022/02/19 06:27:06;;;;;;;4.07;0.73;;;12.30;52.00;;;;;;6193039;28;20038;-70
2022/02/19 06:30:18;;;;;;;1.73;0.60;;;12.10;52.40;;;;;;6205538;28;20046;-70
2022/02/19 06:33:26;;;;;;;1.38;0.47;;;12.10;52.70;;;;;;6190984;28;20038;-70
2022/02/19 06:36:30;;;;;;;5.72;0.77;;;12.10;52.70;;;;;;6194803;28;20040;-72
2022/02/19 06:39:32;;;;;;;5.38;1.15;;;12.00;52.80;;;;;;6180895;28;20038;-71
2022/02/19 06:42:33;;;;;;;2.90;0.47;;;12.00;52.80;;;;;;6207764;28;20031;-71
2022/02/19 06:45:37;;;;;;;5.45;0.73;;;12.00;52.80;;;;;;6172934;28;20042;-70
2022/02/19 06:48:38;;;;;;;4.57;0.73;;;11.90;52.60;;;;;;6215508;28;20034;-71
2022/02/19 06:51:40;;;;;;;5.68;0.85;;;11.90;52.50;;;;;;6200312;28;20463;-71
2022/02/19 06:54:42;;;;;;;5.75;0.60;;;11.90;52.40;;;;;;6200725;28;20054;-71
2022/02/19 06:57:47;;;;;;;7.45;0.95;;;11.90;52.30;;;;;;6217868;28;20045;-71
2022/02/19 07:00:51;;;;;;;4.60;0.77;;;11.90;52.20;;;;;;6202772;28;20038;-70
2022/02/19 07:03:54;;;;;;;2.88;0.50;;;12.00;52.10;;;;;;6202107;28;20030;-71
2022/02/19 07:07:14;;;;;;;4.18;0.75;;;12.00;51.90;;;;;;6199671;28;20070;-70
2022/02/19 07:10:15;;;;;;;5.97;1.33;;;12.00;51.80;;;;;;6214889;28;20058;-70
2022/02/19 07:13:20;;;;;;;8.85;1.05;;;12.10;51.70;;;;;;6195986;28;20079;-71
2022/02/19 07:16:23;;;;;;;8.23;1.42;;;12.10;51.60;;;;;;6215101;28;20438;-71
2022/02/19 07:19:27;;;;;;;7.05;0.95;;;12.10;51.50;;;;;;6185360;28;20301;-70
2022/02/19 07:22:28;;;;;;;13.85;1.65;;;12.20;51.50;;;;;;6195109;28;20084;-71
2022/02/19 07:25:30;;;;;;;10.07;1.20;;;12.30;51.40;;;;;;6198154;28;20041;-70
2022/02/19 07:28:31;;;;;;;6.75;1.23;;;12.40;51.30;;;;;;6205638;28;20486;-70
2022/02/19 07:31:32;;;;;;;3.70;0.95;;;12.50;51.10;;;;;;6213727;28;20037;-71
2022/02/19 07:34:34;;;;;;;6.20;1.00;;;12.50;50.90;;;;;;6214097;28;20035;-71
2022/02/19 07:37:37;;;;;;;18.38;1.60;;;12.60;50.80;;;;;;6196849;28;20118;-71
2022/02/19 07:40:37;;;;;;;5.70;0.88;;;12.60;50.70;;;;;;6198607;28;20038;-71
2022/02/19 07:43:38;;;;;;;7.78;1.35;;;12.60;50.60;;;;;;6215033;28;20434;-71
2022/02/19 07:47:09;;;;;;;6.25;1.20;;;12.60;50.60;;;;;;6211504;28;20030;-71
2022/02/19 08:01:15;;;;;;;10.82;1.63;;;12.80;50.50;;;;;;6155048;28;20050;-70
2022/02/19 08:04:19;;;;;;;6.68;1.42;;;12.80;50.40;;;;;;6139471;28;20050;-70
2022/02/19 08:07:22;;;;;;;3.95;1.10;;;12.80;50.40;;;;;;6171818;28;20358;-70
2022/02/19 08:10:23;;;;;;;9.90;0.85;;;12.80;50.50;;;;;;6153273;28;20169;-71
2022/02/19 08:13:24;;;;;;;8.63;1.08;;;12.80;50.50;;;;;;6154730;28;20163;-71
2022/02/19 08:16:24;;;;;;;7.88;1.70;;;12.80;50.50;;;;;;6155178;28;20059;-71
2022/02/19 08:19:25;;;;;;;3.75;1.10;;;12.80;50.50;;;;;;6170834;28;20122;-71
2022/02/19 08:22:26;;;;;;;6.53;0.90;;;12.80;50.40;;;;;;6154395;28;20121;-72
2022/02/19 08:25:27;;;;;;;8.60;1.30;;;12.80;50.30;;;;;;6171053;28;20035;-71
2022/02/19 08:28:28;;;;;;;8.10;1.13;;;12.80;50.30;;;;;;6171409;28;20497;-71
2022/02/19 08:31:29;;;;;;;8.00;1.15;;;12.90;50.30;;;;;;6155069;28;20034;-71
2022/02/19 08:34:30;;;;;;;11.23;1.25;;;13.00;50.20;;;;;;6174618;28;20116;-72
2022/02/19 08:37:31;;;;;;;8.57;1.33;;;13.10;50.00;;;;;;6210774;28;20038;-71
2022/02/19 08:40:32;;;;;;;9.27;1.38;;;13.20;49.90;;;;;;6195128;28;20492;-71
2022/02/19 08:43:33;;;;;;;4.70;1.15;;;13.20;49.70;;;;;;6197437;28;20065;-71
2022/02/19 08:46:34;;;;;;;11.45;1.40;;;13.20;49.70;;;;;;6196262;28;20049;-71
2022/02/19 08:49:35;;;;;;;7.95;0.98;;;13.10;49.80;;;;;;6194584;28;20045;-71
2022/02/19 08:52:37;;;;;;;13.30;1.42;;;13.10;49.90;;;;;;6211051;28;20037;-71
2022/02/19 08:55:39;;;;;;;14.00;1.70;;;13.00;49.90;;;;;;6197092;28;20042;-70
2022/02/19 08:58:40;;;;;;;4.45;0.85;;;13.10;50.00;;;;;;6212549;28;20066;-71
2022/02/19 09:01:41;;;;;;;7.13;1.50;;;13.00;50.00;;;;;;6196697;28;20042;-73
2022/02/19 09:04:42;;;;;;;11.77;1.52;;;13.10;50.10;;;;;;6193297;28;20133;-72
2022/02/19 09:07:43;;;;;;;13.65;1.70;;;13.00;50.10;;;;;;6176615;28;20043;-72
2022/02/19 09:10:47;;;;;;;9.65;1.02;;;13.00;50.20;;;;;;6192470;28;20057;-72
2022/02/19 09:13:54;;;;;;;7.53;1.30;;;13.00;50.30;;;;;;6181106;28;20057;-72
2022/02/19 09:16:55;;;;;;;8.15;0.70;;;13.00;50.40;;;;;;6193823;28;20042;-72
2022/02/19 09:19:56;;;;;;;7.43;1.88;;;13.00;50.30;;;;;;6165686;28;20066;-72
2022/02/19 09:23:00;;;;;;;5.38;1.35;;;13.00;50.20;;;;;;6194298;28;20379;-72
2022/02/19 09:26:01;;;;;;;8.57;1.13;;;13.10;50.70;;;;;;6211931;28;20034;-73
2022/02/19 09:29:05;;;;;;;21.65;1.50;;;13.10;50.10;;;;;;6211566;28;20030;-73
2022/02/19 09:32:07;;;;;;;13.75;1.55;;;13.20;50.00;;;;;;6214000;28;20112;-72
2022/02/19 09:35:11;;;;;;;13.15;1.45;;;13.30;49.70;;;;;;6198178;28;20360;-72
2022/02/19 09:38:12;;;;;;;19.05;1.85;;;13.40;49.60;;;;;;6191691;28;20039;-73
2022/02/19 09:41:14;;;;;;;8.15;1.48;;;13.40;49.40;;;;;;6189816;28;20116;-73
2022/02/19 09:44:16;;;;;;;4.85;1.15;;;13.40;49.20;;;;;;6198506;28;20477;-72
2022/02/19 09:47:27;;;;;;;10.18;1.25;;;13.50;49.10;;;;;;6210565;28;20038;-72
2022/02/19 09:50:29;;;;;;;6.38;1.52;;;13.60;49.00;;;;;;6209434;28;20038;-73
2022/02/19 09:53:33;;;;;;;7.82;1.20;;;13.70;48.70;;;;;;6195931;28;20053;-70
2022/02/19 09:56:35;;;;;;;9.38;1.20;;;13.70;48.20;;;;;;6208934;28;20046;-71
2022/02/19 09:59:36;;;;;;;4.80;1.30;;;13.80;47.80;;;;;;6211184;28;20041;-71
2022/02/19 10:02:37;;;;;;;19.42;1.75;;;13.90;47.60;;;;;;6196535;28;20363;-70
2022/02/19 10:05:38;;;;;;;6.93;1.48;;;14.00;47.40;;;;;;6195157;28;20052;-70
2022/02/19 10:08:40;;;;;;;7.45;1.40;;;13.90;47.10;;;;;;6196367;28;20404;-70
2022/02/19 10:11:42;;;;;;;7.18;1.10;;;13.90;47.20;;;;;;6209723;28;20042;-70
2022/02/19 10:14:44;;;;;;;6.18;1.23;;;14.00;47.10;;;;;;6190515;28;20051;-70
2022/02/19 10:17:45;;;;;;;5.32;1.20;;;14.10;47.00;;;;;;6209016;28;20444;-71
2022/02/19 10:20:48;;;;;;;11.48;1.38;;;14.10;46.60;;;;;;6195286;28;20050;-71
2022/02/19 10:23:56;;;;;;;6.32;1.55;;;14.20;46.40;;;;;;6215632;28;20060;-71
2022/02/19 10:26:57;;;;;;;5.93;1.40;;;14.30;46.20;;;;;;6201660;28;20108;-71
2022/02/19 10:29:58;;;;;;;13.85;2.08;;;14.40;46.00;;;;;;6199380;28;20058;-71
2022/02/19 10:33:07;;;;;;;14.30;1.40;;;14.50;45.70;;;;;;6200486;28;20140;-71
2022/02/19 10:36:19;;;;;;;10.35;1.55;;;14.50;45.30;;;;;;6179272;28;20031;-71
2022/02/19 10:39:31;;;;;;;14.60;2.17;;;14.50;45.20;;;;;;6200787;28;20042;-71
2022/02/19 10:42:34;;;;;;;9.73;1.67;;;14.50;45.10;;;;;;6216764;28;20038;-71
2022/02/19 10:45:37;;;;;;;8.35;1.92;;;14.60;45.00;;;;;;6217060;28;20050;-70
2022/02/19 10:48:38;;;;;;;10.85;1.20;;;14.50;45.10;;;;;;6201805;28;20038;-70
2022/02/19 10:51:43;;;;;;;13.18;1.25;;;14.40;45.00;;;;;;6199406;28;20089;-72
2022/02/19 10:54:44;;;;;;;10.40;2.63;;;14.30;45.00;;;;;;6216666;28;20408;-72
2022/02/19 10:57:46;;;;;;;10.13;1.27;;;14.30;45.00;;;;;;6210568;28;20041;-71
2022/02/19 11:00:47;;;;;;;14.50;1.33;;;14.30;45.00;;;;;;6213746;28;20113;-71
2022/02/19 11:03:49;;;;;;;6.50;1.00;;;14.20;44.80;;;;;;6189880;28;20049;-72
2022/02/19 11:06:50;;;;;;;9.13;1.40;;;14.30;44.80;;;;;;6216039;28;20034;-71
2022/02/19 11:09:51;;;;;;;6.55;1.27;;;14.30;44.40;;;;;;6199503;28;20068;-69
2022/02/19 11:12:52;;;;;;;5.38;1.52;;;14.30;44.20;;;;;;6201153;28;20046;-70
2022/02/19 11:15:53;;;;;;;8.82;1.13;;;14.30;44.10;;;;;;6199823;28;20034;-70
2022/02/19 11:18:55;;;;;;;9.90;1.77;;;14.30;44.10;;;;;;6199891;28;20030;-70
2022/02/19 11:21:58;;;;;;;7.57;1.35;;;14.30;44.30;;;;;;6199371;28;20049;-71
2022/02/19 11:25:00;;;;;;;18.23;1.40;;;14.40;44.30;;;;;;6200081;28;20058;-71
2022/02/19 11:28:13;;;;;;;12.10;1.92;;;14.50;44.20;;;;;;6200677;28;20050;-72
2022/02/19 11:31:15;;;;;;;9.05;1.63;;;14.60;44.00;;;;;;6198706;28;20045;-71
2022/02/19 11:34:23;;;;;;;7.90;1.85;;;14.70;43.80;;;;;;6174351;28;20054;-72
2022/02/19 11:37:28;;;;;;;8.10;1.27;;;14.80;43.70;;;;;;6197554;28;20450;-70
2022/02/19 11:40:54;;;;;;;7.68;1.42;;;14.80;43.40;;;;;;6194489;28;20030;-72
2022/02/19 11:44:18;;;;;;;8.80;1.70;;;14.80;43.40;;;;;;6152591;28;20055;-71
2022/02/19 11:47:45;;;;;;;6.70;1.70;;;14.80;43.20;;;;;;6147720;28;20046;-71
2022/02/19 11:50:51;;;;;;;5.10;1.38;;;14.80;43.40;;;;;;6173784;28;20031;-71
2022/02/19 11:54:10;;;;;;;14.40;1.75;;;14.80;43.20;;;;;;6170447;28;20053;-70
2022/02/19 11:57:21;;;;;;;12.25;1.58;;;14.70;43.20;;;;;;6153317;28;20035;-70
2022/02/19 12:00:44;;;;;;;7.72;1.10;;;14.60;43.20;;;;;;6214437;28;20118;-71
2022/02/19 12:03:45;;;;;;;25.33;2.10;;;14.60;43.40;;;;;;6199316;28;20034;-72
2022/02/19 12:07:06;;;;;;;11.40;1.52;;;14.60;43.20;;;;;;6198852;28;20118;-72
2022/02/19 12:10:09;;;;;;;5.90;1.30;;;14.60;43.20;;;;;;6194824;28;20483;-70
2022/02/19 12:13:13;;;;;;;11.93;1.70;;;14.60;43.10;;;;;;6199132;28;20050;-70
2022/02/19 12:16:39;;;;;;;13.25;1.73;;;14.60;43.60;;;;;;6199499;28;20034;-71
2022/02/19 12:19:52;;;;;;;7.50;1.95;;;14.60;43.00;;;;;;6199637;28;20364;-70
2022/02/19 12:22:54;;;;;;;6.88;1.42;;;14.80;42.90;;;;;;6195395;28;20387;-70
2022/02/19 12:25:55;;;;;;;11.10;2.20;;;15.00;42.30;;;;;;6190754;28;20053;-69
2022/02/19 12:29:25;;;;;;;9.30;1.83;;;15.20;41.70;;;;;;6186006;28;20034;-70
2022/02/19 12:32:30;;;;;;;9.00;1.98;;;15.30;41.40;;;;;;6192561;28;20038;-72
2022/02/19 12:35:35;;;;;;;9.88;1.60;;;15.30;41.10;;;;;;6195582;28;20087;-72
2022/02/19 12:38:37;;;;;;;15.32;1.48;;;15.20;41.10;;;;;;6198275;28;20117;-72
2022/02/19 12:41:38;;;;;;;11.95;1.50;;;15.10;40.90;;;;;;6197896;28;20038;-71
2022/02/19 12:44:39;;;;;;;7.53;1.10;;;15.10;40.90;;;;;;6212112;28;20435;-71
2022/02/19 12:47:40;;;;;;;7.68;1.30;;;15.10;40.50;;;;;;6196711;28;20038;-72
2022/02/19 12:50:52;;;;;;;10.27;1.48;;;15.20;40.50;;;;;;6196811;28;20031;-72
2022/02/19 12:53:54;;;;;;;14.57;1.10;;;15.30;40.40;;;;;;6195676;28;20050;-70
2022/02/19 12:56:55;;;;;;;12.30;1.10;;;15.30;40.10;;;;;;6188493;28;20379;-71
2022/02/19 12:59:57;;;;;;;4.32;1.08;;;15.40;40.10;;;;;;6193620;28;20040;-71
2022/02/19 13:03:04;;;;;;;9.27;1.20;;;15.40;39.80;;;;;;6197443;28;20058;-71
2022/02/19 13:06:05;;;;;;;8.98;2.08;;;15.50;39.70;;;;;;6195341;28;20462;-72
2022/02/19 13:09:09;;;;;;;11.82;1.50;;;15.50;39.80;;;;;;6197149;28;20047;-71
2022/02/19 13:12:10;;;;;;;7.50;1.25;;;15.50;38.70;;;;;;6194997;28;20129;-73
2022/02/19 13:15:12;;;;;;;10.25;1.30;;;15.50;38.80;;;;;;6196621;28;20463;-72
2022/02/19 13:18:13;;;;;;;11.70;1.55;;;15.50;38.50;;;;;;6197060;28;20034;-71
2022/02/19 13:21:17;;;;;;;6.13;1.77;;;15.50;38.40;;;;;;6196293;28;20049;-69
2022/02/19 13:24:18;;;;;;;9.85;1.20;;;15.60;38.40;;;;;;6188715;28;20329;-70
2022/02/19 13:27:21;;;;;;;7.00;1.50;;;15.50;38.90;;;;;;6197290;28;20034;-71
2022/02/19 13:30:22;;;;;;;9.15;1.00;;;15.50;38.50;;;;;;6211255;28;20459;-71
2022/02/19 13:33:24;;;;;;;6.15;1.20;;;15.40;38.50;;;;;;6196698;28;20147;-72
2022/02/19 13:36:29;;;;;;;6.97;1.10;;;15.40;38.30;;;;;;6210790;28;20113;-72
2022/02/19 13:39:39;;;;;;;11.55;1.52;;;15.30;38.40;;;;;;6190734;28;20034;-72
2022/02/19 13:42:53;;;;;;;10.10;1.02;;;15.30;38.60;;;;;;6206228;28;20148;-71
2022/02/19 13:45:54;;;;;;;6.15;1.20;;;15.40;38.70;;;;;;6196786;28;20030;-71
2022/02/19 13:48:58;;;;;;;4.78;1.15;;;15.50;38.60;;;;;;6195287;28;20058;-71
2022/02/19 13:51:59;;;;;;;9.38;1.35;;;15.50;38.30;;;;;;6210563;28;20042;-70
2022/02/19 13:55:13;;;;;;;7.60;1.50;;;15.50;38.20;;;;;;6195934;28;20035;-72
2022/02/19 13:58:20;;;;;;;9.18;1.20;;;15.40;38.30;;;;;;6198819;28;20039;-72
2022/02/19 14:01:21;;;;;;;3.58;0.70;;;15.40;38.40;;;;;;6215948;28;20034;-71
2022/02/19 14:04:35;;;;;;;3.30;1.02;;;15.40;38.20;;;;;;6201264;28;20327;-70
2022/02/19 14:07:55;;;;;;;5.18;1.20;;;15.40;38.30;;;;;;6194553;28;20097;-71
2022/02/19 14:11:00;;;;;;;8.23;2.20;;;15.40;37.90;;;;;;6196926;28;20080;-70
2022/02/19 14:14:01;;;;;;;8.27;1.52;;;15.30;37.70;;;;;;6198698;28;20120;-71
2022/02/19 14:17:19;;;;;;;2.70;0.70;;;15.30;37.80;;;;;;6214328;28;20042;-71
2022/02/19 14:20:21;;;;;;;7.97;1.10;;;15.30;37.50;;;;;;6177207;28;20074;-72
2022/02/19 14:23:25;;;;;;;10.32;0.95;;;15.40;37.10;;;;;;6214271;28;20104;-71
2022/02/19 14:26:26;;;;;;;5.78;1.20;;;15.40;36.80;;;;;;6197697;28;20042;-69
2022/02/19 14:29:27;;;;;;;5.20;0.77;;;15.50;36.00;;;;;;6199742;28;20046;-70
2022/02/19 14:32:28;;;;;;;7.72;0.80;;;15.40;35.20;;;;;;6197526;28;20050;-70
2022/02/19 14:35:29;;;;;;;4.97;0.90;;;15.30;35.20;;;;;;6199726;28;20030;-70
2022/02/19 14:38:32;;;;;;;1.83;0.60;;;15.30;35.20;;;;;;6198936;28;20523;-73
2022/02/19 14:41:33;;;;;;;7.35;1.88;;;15.30;35.10;;;;;;6195172;28;20026;-72
2022/02/19 14:44:34;;;;;;;6.93;0.93;;;15.30;35.40;;;;;;6198173;28;20133;-72
2022/02/19 14:47:36;;;;;;;5.35;0.93;;;15.20;34.80;;;;;;6212286;28;20537;-71
2022/02/19 14:50:37;;;;;;;3.78;0.75;;;15.30;34.80;;;;;;6197491;28;20065;-72
2022/02/19 14:53:38;;;;;;;4.95;0.85;;;15.30;34.70;;;;;;6198710;28;20042;-72
2022/02/19 14:56:39;;;;;;;4.50;0.80;;;15.30;34.70;;;;;;6180359;28;20034;-71
2022/02/19 14:59:40;;;;;;;3.03;0.75;;;15.30;34.20;;;;;;6193346;28;20034;-71
2022/02/19 15:02:41;;;;;;;4.60;1.15;;;15.30;34.30;;;;;;6198532;28;20181;-72
2022/02/19 15:05:42;;;;;;;3.58;1.08;;;15.30;34.20;;;;;;6192002;28;20054;-71
2022/02/19 15:08:42;;;;;;;8.00;1.42;;;15.20;33.90;;;;;;6198486;28;20097;-70
2022/02/19 15:11:43;;;;;;;1.65;0.57;;;15.10;33.90;;;;;;6210085;28;20054;-71
2022/02/19 15:14:44;;;;;;;5.28;0.93;;;15.10;33.90;;;;;;6189704;28;20137;-70
2022/02/19 15:17:45;;;;;;;4.60;0.70;;;15.00;33.90;;;;;;6195309;28;20070;-71
2022/02/19 15:20:47;;;;;;;3.95;0.75;;;14.90;34.10;;;;;;6179842;28;20031;-71
2022/02/19 15:23:48;;;;;;;4.60;0.90;;;14.90;34.10;;;;;;6192020;28;20436;-71
2022/02/19 15:26:49;;;;;;;5.65;0.85;;;14.90;34.50;;;;;;6194487;28;20038;-71
2022/02/19 15:29:51;;;;;;;2.78;0.80;;;14.80;34.50;;;;;;6195725;28;20114;-71
2022/02/19 15:32:52;;;;;;;4.70;1.00;;;14.80;34.70;;;;;;6177448;28;20053;-71
2022/02/19 15:35:53;;;;;;;4.20;0.90;;;14.80;34.80;;;;;;6196445;28;20042;-71
2022/02/19 15:38:54;;;;;;;4.10;0.90;;;14.70;34.60;;;;;;6196829;28;20035;-72
2022/02/19 15:41:55;;;;;;;4.38;0.88;;;14.70;34.50;;;;;;6173042;28;20037;-71
2022/02/19 15:44:57;;;;;;;2.38;0.60;;;14.70;34.30;;;;;;6195155;28;20432;-70
2022/02/19 15:47:58;;;;;;;5.65;1.23;;;14.60;34.40;;;;;;6196938;28;20034;-71
2022/02/19 15:50:59;;;;;;;2.85;0.70;;;14.60;34.60;;;;;;6210996;28;20049;-72
2022/02/19 15:54:00;;;;;;;2.08;0.60;;;14.60;34.50;;;;;;6180973;28;20359;-71
2022/02/19 15:57:02;;;;;;;2.47;1.00;;;14.50;34.40;;;;;;6195250;28;20081;-71
2022/02/19 16:00:05;;;;;;;9.00;1.60;;;14.50;34.30;;;;;;6194845;28;20133;-72
2022/02/19 16:03:13;;;;;;;4.03;0.82;;;14.40;34.40;;;;;;6195994;28;20121;-72
2022/02/19 16:06:14;;;;;;;2.63;0.57;;;14.40;34.40;;;;;;6210524;28;20482;-71